Hamill, South Dakota
Current Conditions -  °F | °C
As of 10:35 AM on Friday 24 Oct 2014 (Local Time) from K9V9 Reporting Station
Clear Clear  
Wind Chill: 51°   Ceiling: Unl
Heat Index: 51°   Visibility: 10mi
Dew Point: 37°   Wind: 5mph
Humidity: 60%   Direction: 270°W
Pressure: 29.93"   Gusts: NA
Location:  43.59°N, 99.68°W
Report Text: K9V9 241535Z AUTO 27004KT 10SM CLR 10/03 A2993 RMK AO2 T01040030
Loading
Personal Weather Stations






























Interactive Weather Map
Tropical Storm Tracking
New forecast layout! Learn more

10-Day Weather Forecast

Advertisements
Track Severe Weather on mobile